Terminal Aerodrome Forecast
Issued by NWS Missoula, MT

Home | Current Version | Previous Version | Text Only | Print | Product List | Glossary On
Versions: 1 2 3 4 5 6 7 8 9 10 11 12 13 14 15 16 17 18 19
000
FTUS45 KMSO 272320
TAFBTM
TAF
KBTM 272320Z 2800/2824 09009KT P6SM VCSH OVC050
     FM280100 02008KT 4SM -SN BR OVC030
     FM280600 02006KT P6SM VCSH OVC050
     FM281200 06005KT 5SM -SN BR OVC030=

USA.gov is the U.S. government's official web portal to all federal, state and local government web resources and services.